createdAt,value
2019-04-01T00:01:13.793Z,76.47
2019-04-01T00:03:49.893Z,76.47
2019-04-01T00:06:23.058Z,75.66
2019-04-01T00:08:55.817Z,75.01
2019-04-01T00:11:29.000Z,75.16
2019-04-01T00:14:02.344Z,73.66
2019-04-01T00:16:34.073Z,73.04
2019-04-01T00:19:06.084Z,72.71
2019-04-01T00:21:40.029Z,72.56
2019-04-01T00:24:14.174Z,72.59
2019-04-01T00:26:46.101Z,73.28
2019-04-01T00:29:18.050Z,72.18
2019-04-01T00:31:53.867Z,72.12
2019-04-01T00:34:28.655Z,71.74
2019-04-01T00:37:01.054Z,71.49
2019-04-01T00:39:34.581Z,71.61
2019-04-01T00:42:19.543Z,71.36
2019-04-01T00:44:52.212Z,71.66
2019-04-01T00:47:27.983Z,71.59
2019-04-01T00:50:04.159Z,71.23
2019-04-01T00:52:45.585Z,71.49
2019-04-01T00:55:20.873Z,71.14
2019-04-01T00:57:54.221Z,71.00
2019-04-01T01:00:28.349Z,71.35
2019-04-01T01:03:01.395Z,71.44
2019-04-01T01:05:35.241Z,71.53
2019-04-01T01:08:08.750Z,71.91
2019-04-01T01:10:45.751Z,72.08
2019-04-01T01:13:19.625Z,71.53
2019-04-01T01:15:52.916Z,72.08
2019-04-01T01:18:29.255Z,72.34
2019-04-01T01:21:02.220Z,72.94
2019-04-01T01:23:35.217Z,72.58
2019-04-01T01:26:11.072Z,72.63
2019-04-01T01:28:43.354Z,72.69
2019-04-01T01:31:22.924Z,73.22
2019-04-01T01:34:02.623Z,73.27
2019-04-01T01:36:35.594Z,73.12
2019-04-01T01:39:24.443Z,73.00
2019-04-01T01:42:07.044Z,73.78
2019-04-01T01:44:44.249Z,73.73
2019-04-01T01:47:26.229Z,72.95
2019-04-01T01:50:03.609Z,73.05
2019-04-01T01:52:48.434Z,72.86
2019-04-01T01:55:23.937Z,72.68
2019-04-01T01:57:55.271Z,73.05
2019-04-01T02:00:54.445Z,73.19
2019-04-01T02:03:27.682Z,73.55
2019-04-01T02:06:01.524Z,73.55
2019-04-01T02:08:34.378Z,74.06
2019-04-01T02:11:07.440Z,74.06
2019-04-01T02:13:40.443Z,74.12
2019-04-01T02:16:16.029Z,74.42
2019-04-01T02:18:48.495Z,74.58
2019-04-01T02:21:22.509Z,75.06
2019-04-01T02:23:55.463Z,75.05
2019-04-01T02:26:28.498Z,74.75
2019-04-01T02:29:01.495Z,74.96
2019-04-01T02:31:34.879Z,74.95
2019-04-01T02:34:09.263Z,75.11
2019-04-01T02:36:40.587Z,75.26
2019-04-01T02:39:13.807Z,75.98
2019-04-01T02:41:46.619Z,75.94
2019-04-01T02:44:19.928Z,75.78
2019-04-01T02:46:53.639Z,76.13
2019-04-01T02:49:25.668Z,75.75
2019-04-01T02:51:58.948Z,76.27
2019-04-01T02:54:33.578Z,76.28
2019-04-01T02:57:05.845Z,75.91
2019-04-01T02:59:37.610Z,76.05
2019-04-01T03:02:13.119Z,76.33
2019-04-01T03:04:45.437Z,76.28
2019-04-01T03:07:22.121Z,76.32
2019-04-01T03:09:56.130Z,76.35
2019-04-01T03:12:29.795Z,76.65
2019-04-01T03:15:04.773Z,76.66
2019-04-01T03:17:38.548Z,76.90
2019-04-01T03:20:14.314Z,77.08
2019-04-01T03:22:51.115Z,76.72
2019-04-01T03:25:23.980Z,76.30
2019-04-01T03:27:57.669Z,76.81
2019-04-01T03:30:31.304Z,77.15
2019-04-01T03:33:02.818Z,76.68
2019-04-01T03:35:40.936Z,76.38
2019-04-01T03:38:14.272Z,76.45
2019-04-01T03:40:46.988Z,76.20
2019-04-01T03:43:20.119Z,76.05
2019-04-01T03:46:01.686Z,76.20
2019-04-01T03:48:34.939Z,76.08
2019-04-01T03:51:08.246Z,76.18
2019-04-01T03:53:41.165Z,76.42
2019-04-01T03:56:13.038Z,76.70
2019-04-01T03:58:48.600Z,76.99
2019-04-01T04:01:22.117Z,77.29
2019-04-01T04:03:55.215Z,77.23
2019-04-01T04:06:28.034Z,77.38
2019-04-01T04:09:02.139Z,77.55
2019-04-01T04:11:35.771Z,77.06
2019-04-01T04:14:07.339Z,77.06
2019-04-01T04:16:40.977Z,77.11
2019-04-01T04:19:17.417Z,77.28
2019-04-01T04:21:48.947Z,77.06
2019-04-01T04:24:22.736Z,77.22
2019-04-01T04:26:57.440Z,77.66
2019-04-01T04:29:29.163Z,77.59
2019-04-01T04:32:02.325Z,77.72
2019-04-01T04:34:37.240Z,77.96
2019-04-01T04:37:11.207Z,78.43
2019-04-01T04:39:43.859Z,78.60
2019-04-01T04:42:19.772Z,78.93
2019-04-01T04:44:52.259Z,78.17
2019-04-01T04:47:27.172Z,78.08
2019-04-01T04:50:01.350Z,77.34
2019-04-01T04:52:34.240Z,76.77
2019-04-01T04:55:07.291Z,76.50
2019-04-01T04:57:43.100Z,76.11
2019-04-01T05:00:16.920Z,75.61
2019-04-01T05:02:49.307Z,75.16
2019-04-01T05:05:22.447Z,75.33
2019-04-01T05:07:57.257Z,75.27
2019-04-01T05:10:33.391Z,74.71
2019-04-01T05:13:07.982Z,74.89
2019-04-01T05:15:41.788Z,75.22
2019-04-01T05:18:15.971Z,75.17
2019-04-01T05:20:50.707Z,75.04
2019-04-01T05:23:25.686Z,74.70
2019-04-01T05:26:01.986Z,75.16
2019-04-01T05:28:35.310Z,74.86
2019-04-01T05:31:09.455Z,75.39
2019-04-01T05:33:55.209Z,75.40
2019-04-01T05:36:20.520Z,75.33
2019-04-01T05:38:54.555Z,75.99
2019-04-01T05:41:28.965Z,75.74
2019-04-01T05:44:02.384Z,76.46
2019-04-01T05:46:34.308Z,76.31
2019-04-01T05:49:09.388Z,76.14
2019-04-01T05:51:48.779Z,76.86
2019-04-01T05:54:20.420Z,74.93
2019-04-01T05:56:52.397Z,75.21
2019-04-01T05:59:28.952Z,74.84
2019-04-01T06:02:00.367Z,74.47
2019-04-01T06:04:31.974Z,74.33
2019-04-01T06:07:04.483Z,73.73
2019-04-01T06:09:37.797Z,74.08
2019-04-01T06:12:12.068Z,73.81
2019-04-01T06:14:48.074Z,74.31
2019-04-01T06:17:21.791Z,72.87
2019-04-01T06:19:54.547Z,72.81
2019-04-01T06:22:28.578Z,71.80
2019-04-01T06:25:01.879Z,72.08
2019-04-01T06:27:37.393Z,72.15
2019-04-01T06:30:10.813Z,71.51
2019-04-01T06:32:43.695Z,70.48
2019-04-01T06:35:17.714Z,70.48
2019-04-01T06:37:49.771Z,70.88
2019-04-01T06:40:22.164Z,71.13
2019-04-01T06:42:55.581Z,70.44
2019-04-01T06:45:28.168Z,69.87
2019-04-01T06:48:01.672Z,70.38
2019-04-01T06:50:36.354Z,70.35
2019-04-01T06:53:07.837Z,70.54
2019-04-01T06:55:41.857Z,70.75
2019-04-01T06:58:14.297Z,70.70
2019-04-01T07:00:47.143Z,70.53
2019-04-01T07:03:20.855Z,69.48
2019-04-01T07:05:53.130Z,69.62
2019-04-01T07:08:25.747Z,69.93
2019-04-01T07:10:59.642Z,69.35
2019-04-01T07:13:31.745Z,68.42
2019-04-01T07:16:16.211Z,67.43
2019-04-01T07:18:50.019Z,67.04
2019-04-01T07:21:23.326Z,66.99
2019-04-01T07:23:57.625Z,66.35
2019-04-01T07:26:32.328Z,67.35
2019-04-01T07:29:05.930Z,67.44
2019-04-01T07:31:39.446Z,67.04
2019-04-01T07:34:18.101Z,67.42
2019-04-01T07:36:56.566Z,65.73
2019-04-01T07:39:31.359Z,64.65
2019-04-01T07:42:03.360Z,64.41
2019-04-01T07:44:45.185Z,64.96
2019-04-01T07:47:23.035Z,65.69
2019-04-01T07:49:57.791Z,64.76
2019-04-01T07:52:32.242Z,65.54
2019-04-01T07:55:05.420Z,65.53
2019-04-01T07:57:42.221Z,64.44
2019-04-01T08:00:18.894Z,64.72
2019-04-01T08:02:55.676Z,63.87
2019-04-01T08:05:29.593Z,64.18
2019-04-01T08:08:03.584Z,63.24
2019-04-01T08:10:36.197Z,62.97
2019-04-01T08:13:09.808Z,63.61
2019-04-01T08:15:45.493Z,63.07
2019-04-01T08:18:17.916Z,64.22
2019-04-01T08:20:53.666Z,63.73
2019-04-01T08:23:28.624Z,64.29
2019-04-01T08:26:02.548Z,63.07
2019-04-01T08:28:35.143Z,62.05
2019-04-01T08:31:08.082Z,62.41
2019-04-01T08:33:42.035Z,62.41
2019-04-01T08:36:16.048Z,62.30
2019-04-01T08:38:50.257Z,62.26
2019-04-01T08:41:24.746Z,61.92
2019-04-01T08:43:56.356Z,62.01
2019-04-01T08:46:27.758Z,61.39
2019-04-01T08:48:59.808Z,60.69
2019-04-01T08:51:31.585Z,60.06
2019-04-01T08:54:04.140Z,60.90
2019-04-01T08:56:38.065Z,61.29
2019-04-01T08:59:09.154Z,62.01
2019-04-01T09:01:41.321Z,61.00
2019-04-01T09:04:14.415Z,60.27
2019-04-01T09:06:48.103Z,60.04
2019-04-01T09:09:20.206Z,59.41
2019-04-01T09:11:54.817Z,58.36
2019-04-01T09:14:32.470Z,59.38
2019-04-01T09:17:04.591Z,58.91
2019-04-01T09:19:40.303Z,59.08
2019-04-01T09:22:15.964Z,58.37
2019-04-01T09:24:49.595Z,58.24
2019-04-01T09:27:23.338Z,57.67
2019-04-01T09:29:56.365Z,58.42
2019-04-01T09:32:28.377Z,58.42
2019-04-01T09:35:01.451Z,58.18
2019-04-01T09:37:34.524Z,58.03
2019-04-01T09:40:07.323Z,58.85
2019-04-01T09:42:42.515Z,57.46
2019-04-01T09:45:14.603Z,56.90
2019-04-01T09:47:47.326Z,57.32
2019-04-01T09:50:21.396Z,56.67
2019-04-01T09:52:55.375Z,56.89
2019-04-01T09:55:28.508Z,57.44
2019-04-01T09:58:02.592Z,56.01
2019-04-01T10:00:36.145Z,55.54
2019-04-01T10:03:08.569Z,55.54
2019-04-01T10:05:40.543Z,56.64
2019-04-01T10:08:13.618Z,56.59
2019-04-01T10:10:48.391Z,55.69
2019-04-01T10:13:22.434Z,54.29
2019-04-01T10:15:55.125Z,55.67
2019-04-01T10:18:28.571Z,53.33
2019-04-01T10:21:05.666Z,53.46
2019-04-01T10:23:41.687Z,53.47
2019-04-01T10:26:13.867Z,54.79
2019-04-01T10:28:49.345Z,52.70
2019-04-01T10:31:21.514Z,52.86
2019-04-01T10:33:53.716Z,53.97
2019-04-01T10:36:28.439Z,51.69
2019-04-01T10:39:01.874Z,50.56
2019-04-01T10:41:36.992Z,52.07
2019-04-01T10:44:10.523Z,52.00
2019-04-01T10:46:43.861Z,51.71
2019-04-01T10:49:16.904Z,50.97
2019-04-01T10:51:49.867Z,51.78
2019-04-01T10:54:25.686Z,51.02
2019-04-01T10:56:59.079Z,51.79
2019-04-01T10:59:31.509Z,51.71
2019-04-01T11:02:03.853Z,50.28
2019-04-01T11:04:37.453Z,51.87
2019-04-01T11:07:10.955Z,49.61
2019-04-01T11:09:44.974Z,50.39
2019-04-01T11:12:17.626Z,49.37
2019-04-01T11:14:49.895Z,50.30
2019-04-01T11:17:25.047Z,49.09
2019-04-01T11:19:58.958Z,49.78
2019-04-01T11:22:31.952Z,50.65
2019-04-01T11:25:05.527Z,49.43
2019-04-01T11:27:38.244Z,48.38
2019-04-01T11:30:13.698Z,48.42
2019-04-01T11:32:44.839Z,49.59
2019-04-01T11:35:17.336Z,47.94
2019-04-01T11:37:52.182Z,49.14
2019-04-01T11:40:27.121Z,47.91
2019-04-01T11:43:05.087Z,48.70
2019-04-01T11:45:43.081Z,46.85
2019-04-01T11:48:19.036Z,47.87
2019-04-01T11:50:53.846Z,47.57
2019-04-01T11:53:26.981Z,45.64
2019-04-01T11:56:02.253Z,47.07
2019-04-01T11:58:35.038Z,47.24
2019-04-01T12:01:08.010Z,45.68
2019-04-01T12:03:42.779Z,49.32
2019-04-01T12:06:18.975Z,47.87
2019-04-01T12:08:52.931Z,46.47
2019-04-01T12:11:26.231Z,45.01
2019-04-01T12:14:05.112Z,47.34
2019-04-01T12:16:38.204Z,44.85
2019-04-01T12:19:11.223Z,46.55
2019-04-01T12:21:46.714Z,45.91
2019-04-01T12:24:21.696Z,46.43
2019-04-01T12:26:54.903Z,46.54
2019-04-01T12:29:29.140Z,46.08
2019-04-01T12:32:02.313Z,45.90
2019-04-01T12:34:35.491Z,45.17
2019-04-01T12:37:10.883Z,45.00
2019-04-01T12:39:48.628Z,44.80
2019-04-01T12:42:21.456Z,43.98
2019-04-01T12:44:54.167Z,44.43
2019-04-01T12:47:28.321Z,44.97
2019-04-01T12:50:06.768Z,44.43
2019-04-01T12:52:38.842Z,44.62
2019-04-01T12:55:14.379Z,44.63
2019-04-01T12:57:50.743Z,45.09
2019-04-01T13:00:24.070Z,44.06
2019-04-01T13:02:58.454Z,43.98
2019-04-01T13:05:31.997Z,46.18
2019-04-01T13:08:14.532Z,44.90
2019-04-01T13:10:48.680Z,43.87
2019-04-01T13:13:24.175Z,43.49
2019-04-01T13:15:56.304Z,44.85
2019-04-01T13:18:29.660Z,45.26
2019-04-01T13:21:07.029Z,44.04
2019-04-01T13:23:50.108Z,44.78
2019-04-01T13:26:21.566Z,43.74
2019-04-01T13:28:54.947Z,43.95
2019-04-01T13:31:33.304Z,43.84
2019-04-01T13:34:05.471Z,44.48
2019-04-01T13:36:38.906Z,44.84
2019-04-01T13:39:19.706Z,44.97
2019-04-01T13:42:00.139Z,44.36
2019-04-01T13:44:37.183Z,43.52
2019-04-01T13:47:09.060Z,44.18
2019-04-01T13:49:42.481Z,44.67
2019-04-01T13:52:21.971Z,44.19
2019-04-01T13:55:12.215Z,44.28
2019-04-01T13:58:01.763Z,43.73
2019-04-01T14:00:37.700Z,45.25
2019-04-01T14:03:13.399Z,45.59
2019-04-01T14:05:51.361Z,45.66
2019-04-01T14:08:31.131Z,43.88
2019-04-01T14:11:25.328Z,43.99
2019-04-01T14:14:07.925Z,43.97
2019-04-01T14:16:44.182Z,42.75
2019-04-01T14:19:22.511Z,44.10
2019-04-01T14:21:59.816Z,44.02
2019-04-01T14:24:34.355Z,43.89
2019-04-01T14:27:10.140Z,44.01
2019-04-01T14:29:48.465Z,43.29
2019-04-01T14:32:23.696Z,43.78
2019-04-01T14:34:58.331Z,43.96
2019-04-01T14:37:34.521Z,43.90
2019-04-01T14:40:18.283Z,43.55
2019-04-01T14:42:51.925Z,43.79
2019-04-01T14:45:27.714Z,44.19
2019-04-01T14:48:08.873Z,43.08
2019-04-01T14:50:44.723Z,43.12
2019-04-01T14:53:30.111Z,43.62
2019-04-01T14:56:02.686Z,43.33
2019-04-01T14:58:38.195Z,43.47
2019-04-01T15:01:18.154Z,43.34
2019-04-01T15:03:54.228Z,42.86
2019-04-01T15:06:28.943Z,43.40
2019-04-01T15:09:02.872Z,42.68
2019-04-01T15:11:58.384Z,43.30
2019-04-01T15:14:33.253Z,43.93
2019-04-01T15:17:09.337Z,44.02
2019-04-01T15:19:43.501Z,43.29
2019-04-01T15:22:27.924Z,42.94
2019-04-01T15:25:03.799Z,42.94
2019-04-01T15:27:42.447Z,43.01
2019-04-01T15:30:16.621Z,43.64
2019-04-01T15:32:54.911Z,43.82
2019-04-01T15:35:26.385Z,42.88
2019-04-01T15:38:02.875Z,42.96
2019-04-01T15:40:35.788Z,43.34
2019-04-01T15:43:13.179Z,43.53
2019-04-01T15:46:03.902Z,44.02
2019-04-01T15:48:38.783Z,43.41
2019-04-01T15:51:18.662Z,42.82
2019-04-01T15:53:52.559Z,43.37
2019-04-01T15:56:26.573Z,42.43
2019-04-01T15:59:08.097Z,42.67
2019-04-01T16:01:50.484Z,43.71
2019-04-01T16:04:37.138Z,42.89
2019-04-01T16:07:22.449Z,42.83
2019-04-01T16:09:59.226Z,42.69
2019-04-01T16:12:35.230Z,42.51
2019-04-01T16:15:26.027Z,42.73
2019-04-01T16:18:12.117Z,42.86
2019-04-01T16:20:52.637Z,42.60
2019-04-01T16:23:37.803Z,42.69
2019-04-01T16:26:15.793Z,43.83
2019-04-01T16:28:58.253Z,42.81
2019-04-01T16:31:34.131Z,43.39
2019-04-01T16:34:08.570Z,42.61
2019-04-01T16:36:47.236Z,42.65
2019-04-01T16:39:45.666Z,42.85
2019-04-01T16:42:21.216Z,43.14
2019-04-01T16:45:05.356Z,43.09
2019-04-01T16:48:09.444Z,42.51
2019-04-01T16:50:44.410Z,43.34
2019-04-01T16:53:31.498Z,42.70
2019-04-01T16:56:07.170Z,43.86
2019-04-01T16:58:47.882Z,43.73
2019-04-01T17:01:25.228Z,44.06
2019-04-01T17:04:37.638Z,43.67
2019-04-01T17:07:13.864Z,44.33
2019-04-01T17:09:59.854Z,44.89
2019-04-01T17:13:04.664Z,45.05
2019-04-01T17:15:44.538Z,45.66
2019-04-01T17:18:20.668Z,45.26
2019-04-01T17:21:02.531Z,45.26
2019-04-01T17:23:41.913Z,45.05
2019-04-01T17:26:45.107Z,45.63
2019-04-01T17:29:53.475Z,46.14
2019-04-01T17:32:29.248Z,46.66
2019-04-01T17:35:02.142Z,46.77
2019-04-01T17:37:49.218Z,46.96
2019-04-01T17:40:33.207Z,47.25
2019-04-01T17:43:24.628Z,46.62
2019-04-01T17:46:06.864Z,46.46
2019-04-01T17:48:42.968Z,45.30
2019-04-01T17:51:17.263Z,45.30
2019-04-01T17:54:00.881Z,45.53
2019-04-01T17:56:35.519Z,45.59
2019-04-01T18:00:04.562Z,45.74
2019-04-01T18:02:47.425Z,45.16
2019-04-01T18:05:25.552Z,45.50
2019-04-01T18:08:09.031Z,45.37
2019-04-01T18:10:53.618Z,45.49
2019-04-01T18:13:33.678Z,45.53
2019-04-01T18:16:07.381Z,45.38
2019-04-01T18:18:47.335Z,45.48
2019-04-01T18:21:32.779Z,45.87
2019-04-01T18:24:17.000Z,46.08
2019-04-01T18:27:23.486Z,46.77
2019-04-01T18:30:14.244Z,47.15
2019-04-01T18:33:25.524Z,47.66
2019-04-01T18:36:52.086Z,47.66
2019-04-01T18:40:01.403Z,48.09
2019-04-01T18:43:00.017Z,48.68
2019-04-01T18:46:24.843Z,49.06
2019-04-01T18:49:57.363Z,49.23
2019-04-01T18:53:11.559Z,49.50
2019-04-01T18:56:39.671Z,49.92
2019-04-01T19:03:11.982Z,49.71
2019-04-01T19:06:36.085Z,49.71
2019-04-01T19:09:32.495Z,49.43
2019-04-01T19:12:31.841Z,48.84
2019-04-01T19:15:27.717Z,48.51
2019-04-01T19:22:59.454Z,48.00
2019-04-01T19:25:52.882Z,48.13
2019-04-01T19:28:48.297Z,47.60
2019-04-01T19:31:58.284Z,47.35
2019-04-01T19:35:15.833Z,48.34
2019-04-01T19:38:51.768Z,49.84
2019-04-01T19:41:37.727Z,49.84
2019-04-01T19:44:38.558Z,50.21
2019-04-01T19:47:45.024Z,49.19
2019-04-01T19:50:54.250Z,49.87
2019-04-01T19:53:58.087Z,50.38
2019-04-01T19:57:01.056Z,50.63
2019-04-01T20:00:43.952Z,50.55
2019-04-01T20:03:34.392Z,50.72
2019-04-01T20:06:59.980Z,51.26
2019-04-01T20:10:18.440Z,50.94
2019-04-01T20:12:50.914Z,52.09
2019-04-01T20:15:48.618Z,51.20
2019-04-01T20:18:55.736Z,51.35
2019-04-01T20:21:51.058Z,51.25
2019-04-01T20:25:00.724Z,51.66
2019-04-01T20:27:55.885Z,51.71
2019-04-01T20:31:02.171Z,52.06
2019-04-01T20:33:41.918Z,51.82
2019-04-01T20:36:32.503Z,51.67
2019-04-01T20:39:29.749Z,51.19
2019-04-01T20:42:24.905Z,50.68
2019-04-01T20:45:13.510Z,50.73
2019-04-01T20:47:58.320Z,50.17
2019-04-01T20:50:51.555Z,50.15
2019-04-01T20:53:39.371Z,49.40
2019-04-01T20:56:14.174Z,48.61
2019-04-01T20:58:56.962Z,48.75
2019-04-01T21:01:39.643Z,47.76
2019-04-01T21:04:49.906Z,46.94
2019-04-01T21:08:02.824Z,46.86
2019-04-01T21:10:28.639Z,47.17
2019-04-01T21:13:10.410Z,47.17
2019-04-01T21:15:47.122Z,47.09
2019-04-01T21:18:22.771Z,46.53
2019-04-01T21:21:03.199Z,46.58
2019-04-01T21:23:41.337Z,46.36
2019-04-01T21:26:21.005Z,46.42
2019-04-01T21:29:01.219Z,46.44
2019-04-01T21:31:40.324Z,46.63
2019-04-01T21:34:18.008Z,47.20
2019-04-01T21:37:06.277Z,46.54
2019-04-01T21:39:54.341Z,46.94
2019-04-01T21:43:08.186Z,47.01
2019-04-01T21:45:58.325Z,47.29
2019-04-01T21:48:42.658Z,47.97
2019-04-01T21:51:28.557Z,48.09
2019-04-01T21:54:10.694Z,48.00
2019-04-01T21:56:56.951Z,48.26
2019-04-01T21:59:44.157Z,48.04
2019-04-01T22:02:36.383Z,48.10
2019-04-01T22:05:22.098Z,48.21
2019-04-01T22:08:07.188Z,48.23
2019-04-01T22:11:16.646Z,48.36
2019-04-01T22:14:07.786Z,48.43
2019-04-01T22:16:48.805Z,48.72
2019-04-01T22:19:54.116Z,48.39
2019-04-01T22:23:07.932Z,48.79
2019-04-01T22:26:02.201Z,48.60
2019-04-01T22:28:38.167Z,48.96
2019-04-01T22:31:27.635Z,49.08
2019-04-01T22:34:08.268Z,49.20
2019-04-01T22:36:52.247Z,49.38
2019-04-01T22:39:57.397Z,49.26
2019-04-01T22:42:37.019Z,49.88
2019-04-01T22:45:23.249Z,49.70
2019-04-01T22:48:14.674Z,49.99
2019-04-01T22:50:58.398Z,49.63
2019-04-01T22:53:40.313Z,49.88
2019-04-01T22:56:21.987Z,49.85
2019-04-01T22:58:59.094Z,50.11
2019-04-01T23:01:45.036Z,49.89
2019-04-01T23:04:21.085Z,50.32
2019-04-01T23:06:56.100Z,50.70
2019-04-01T23:09:37.212Z,50.33
2019-04-01T23:12:10.306Z,50.44
2019-04-01T23:14:48.255Z,50.96
2019-04-01T23:17:28.693Z,50.12
2019-04-01T23:20:00.916Z,50.37
2019-04-01T23:22:52.792Z,50.43
2019-04-01T23:25:35.044Z,50.54
2019-04-01T23:28:34.738Z,50.43
2019-04-01T23:31:28.860Z,50.39
2019-04-01T23:34:19.124Z,50.99
2019-04-01T23:37:00.523Z,51.02
2019-04-01T23:40:06.669Z,51.18
2019-04-01T23:42:56.446Z,52.48
2019-04-01T23:45:54.945Z,53.65
2019-04-01T23:59:37.154Z,57.49
